createdAt,value
2023-02-17T00:01:25.729Z,40.78
2023-02-17T00:07:31.699Z,40.90
2023-02-17T00:13:34.001Z,40.15
2023-02-17T00:19:35.782Z,41.03
2023-02-17T00:25:38.441Z,41.97
2023-02-17T00:31:40.507Z,41.17
2023-02-17T00:37:45.583Z,41.42
2023-02-17T00:43:48.381Z,40.35
2023-02-17T00:49:50.262Z,40.20
2023-02-17T00:55:52.242Z,39.42
2023-02-17T01:01:54.035Z,38.83
2023-02-17T01:07:56.148Z,40.15
2023-02-17T01:13:58.763Z,42.35
2023-02-17T01:20:00.637Z,40.60
2023-02-17T01:26:02.867Z,44.20
2023-02-17T01:32:05.052Z,44.38
2023-02-17T01:38:06.931Z,45.25
2023-02-17T01:44:25.883Z,38.78
2023-02-17T01:50:39.021Z,43.10
2023-02-17T01:56:43.972Z,42.42
2023-02-17T02:02:48.969Z,39.75
2023-02-17T02:09:03.299Z,42.38
2023-02-17T02:15:21.124Z,43.47
2023-02-17T02:21:45.169Z,40.20
2023-02-17T02:28:41.132Z,39.37
2023-02-17T02:34:51.323Z,40.55
2023-02-17T02:41:01.269Z,41.03
2023-02-17T02:47:26.708Z,39.80
2023-02-17T02:53:31.462Z,37.35
2023-02-17T02:59:44.298Z,35.22
2023-02-17T03:05:46.257Z,34.55
2023-02-17T03:11:49.043Z,35.83
2023-02-17T03:17:50.825Z,37.63
2023-02-17T03:23:52.646Z,35.42
2023-02-17T03:29:54.564Z,33.97
2023-02-17T03:35:56.339Z,32.40
2023-02-17T03:41:58.283Z,34.55
2023-02-17T03:48:00.049Z,34.08
2023-02-17T03:54:02.111Z,32.72
2023-02-17T04:00:06.302Z,34.28
2023-02-17T04:06:10.166Z,32.00
2023-02-17T04:12:12.147Z,34.50
2023-02-17T04:18:17.328Z,37.00
2023-02-17T04:24:19.151Z,30.80
2023-02-17T04:30:21.067Z,34.17
2023-02-17T04:36:23.212Z,32.20
2023-02-17T04:42:25.040Z,33.85
2023-02-17T04:48:27.052Z,34.33
2023-02-17T04:54:28.865Z,32.92
2023-02-17T05:00:30.773Z,34.50
2023-02-17T05:06:32.560Z,33.50
2023-02-17T05:12:35.550Z,34.97
2023-02-17T05:18:37.502Z,31.38
2023-02-17T05:24:39.289Z,36.25
2023-02-17T05:30:41.328Z,33.13
2023-02-17T05:36:43.295Z,34.42
2023-02-17T05:42:45.356Z,34.65
2023-02-17T05:48:48.711Z,35.28
2023-02-17T05:54:50.574Z,35.67
2023-02-17T06:00:52.575Z,29.40
2023-02-17T06:06:54.461Z,32.22
2023-02-17T06:12:56.346Z,31.85
2023-02-17T06:19:00.429Z,30.30
2023-02-17T06:25:02.353Z,26.73
2023-02-17T06:31:04.461Z,27.40
2023-02-17T06:37:06.387Z,20.25
2023-02-17T06:43:08.261Z,24.65
2023-02-17T06:49:10.095Z,29.48
2023-02-17T06:55:11.875Z,28.67
2023-02-17T07:01:19.676Z,26.75
2023-02-17T07:07:21.478Z,23.23
2023-02-17T07:13:23.377Z,28.83
2023-02-17T07:19:25.521Z,33.03
2023-02-17T07:25:27.312Z,30.50
2023-02-17T07:31:29.461Z,29.80
2023-02-17T07:37:31.440Z,26.10
2023-02-17T07:43:33.557Z,29.17
2023-02-17T07:49:35.409Z,27.65
2023-02-17T07:55:37.430Z,28.73
2023-02-17T08:01:39.344Z,25.17
2023-02-17T08:07:41.266Z,26.80
2023-02-17T08:13:43.068Z,28.75
2023-02-17T08:19:49.283Z,26.65
2023-02-17T08:25:51.399Z,26.55
2023-02-17T08:31:54.091Z,26.65
2023-02-17T08:37:56.360Z,28.23
2023-02-17T08:44:00.618Z,30.30
2023-02-17T08:50:05.192Z,27.52
2023-02-17T09:02:11.185Z,25.38
2023-02-17T09:08:13.189Z,29.70
2023-02-17T09:14:16.048Z,30.48
2023-02-17T09:20:24.852Z,25.60
2023-02-17T09:26:27.312Z,27.13
2023-02-17T09:32:29.231Z,27.80
2023-02-17T09:38:31.228Z,33.65
2023-02-17T09:44:44.775Z,27.58
2023-02-17T09:50:56.629Z,33.38
2023-02-17T09:57:01.769Z,34.28
2023-02-17T10:03:31.206Z,35.78
2023-02-17T10:09:56.357Z,32.47
2023-02-17T10:16:03.317Z,31.33
2023-02-17T10:22:16.122Z,30.08
2023-02-17T10:28:24.712Z,28.83
2023-02-17T10:34:38.702Z,26.23
2023-02-17T10:40:40.849Z,27.48
2023-02-17T10:46:44.051Z,24.45
2023-02-17T10:52:46.309Z,21.23
2023-02-17T10:59:01.232Z,19.42
2023-02-17T11:05:03.157Z,18.50
2023-02-17T11:11:20.338Z,17.52
2023-02-17T11:17:41.600Z,16.33
2023-02-17T11:23:56.579Z,13.05
2023-02-17T11:30:15.661Z,12.20
2023-02-17T11:36:28.259Z,13.55
2023-02-17T11:42:32.826Z,10.57
2023-02-17T11:48:55.924Z,10.25
2023-02-17T11:55:28.511Z,8.45
2023-02-17T12:01:39.363Z,9.13
2023-02-17T12:08:13.816Z,7.10
2023-02-17T12:14:21.517Z,8.02
2023-02-17T12:20:51.358Z,7.57
2023-02-17T12:27:19.447Z,10.10
2023-02-17T12:33:36.582Z,6.95
2023-02-17T12:39:59.672Z,8.77
2023-02-17T12:46:08.261Z,7.30
2023-02-17T12:52:38.226Z,7.68
2023-02-17T12:58:42.860Z,7.82
2023-02-17T13:04:48.038Z,9.88
2023-02-17T13:11:01.685Z,10.35
2023-02-17T13:17:03.751Z,7.90
2023-02-17T13:23:11.883Z,7.35
2023-02-17T13:29:26.157Z,8.77
2023-02-17T13:35:28.353Z,9.07
2023-02-17T13:41:57.322Z,8.93
2023-02-17T13:48:24.229Z,9.98
2023-02-17T13:54:25.957Z,12.43
2023-02-17T14:00:30.649Z,9.55
2023-02-17T14:06:42.367Z,9.38
2023-02-17T14:12:44.339Z,8.57
2023-02-17T14:18:46.341Z,7.93
2023-02-17T14:24:58.852Z,7.50
2023-02-17T14:31:10.679Z,7.78
2023-02-17T14:37:23.929Z,6.53
2023-02-17T14:43:25.760Z,9.10
2023-02-17T14:49:27.635Z,7.13
2023-02-17T14:55:39.173Z,5.82
2023-02-17T15:01:42.135Z,6.43
2023-02-17T15:07:44.217Z,6.78
2023-02-17T15:13:46.370Z,6.93
2023-02-17T15:19:49.300Z,7.95
2023-02-17T15:25:53.452Z,6.07
2023-02-17T15:32:02.592Z,8.10
2023-02-17T15:38:04.593Z,7.07
2023-02-17T15:44:16.384Z,8.55
2023-02-17T15:50:23.121Z,7.78
2023-02-17T15:56:29.628Z,8.23
2023-02-17T16:02:31.824Z,6.32
2023-02-17T16:08:34.096Z,6.18
2023-02-17T16:14:40.431Z,6.20
2023-02-17T16:20:42.188Z,6.95
2023-02-17T16:26:45.061Z,7.43
2023-02-17T16:32:47.002Z,5.78
2023-02-17T16:38:53.152Z,7.57
2023-02-17T16:44:55.071Z,8.35
2023-02-17T16:50:57.227Z,8.27
2023-02-17T16:56:59.837Z,10.68
2023-02-17T17:03:01.764Z,8.35
2023-02-17T17:09:05.171Z,8.23
2023-02-17T17:15:07.840Z,10.15
2023-02-17T17:21:15.502Z,12.63
2023-02-17T17:27:17.804Z,9.27
2023-02-17T17:33:19.642Z,11.13
2023-02-17T17:39:24.030Z,8.13
2023-02-17T17:51:29.992Z,8.02
2023-02-17T17:57:32.048Z,12.77
2023-02-17T18:03:33.841Z,14.05
2023-02-17T18:09:37.908Z,12.18
2023-02-17T18:15:41.619Z,12.02
2023-02-17T18:21:43.711Z,11.87
2023-02-17T18:27:47.390Z,9.25
2023-02-17T18:33:49.165Z,9.90
2023-02-17T18:39:50.945Z,9.27
2023-02-17T18:45:53.120Z,16.85
2023-02-17T18:51:55.065Z,12.27
2023-02-17T18:57:57.026Z,11.00
2023-02-17T19:03:59.529Z,9.65
2023-02-17T19:10:01.339Z,9.35
2023-02-17T19:16:11.857Z,9.38
2023-02-17T19:22:13.961Z,12.77
2023-02-17T19:28:15.837Z,5.72
2023-02-17T19:34:19.950Z,6.75
2023-02-17T19:40:21.704Z,7.20
2023-02-17T19:46:25.702Z,9.68
2023-02-17T19:52:27.924Z,14.13
2023-02-17T19:58:30.318Z,10.40
2023-02-17T20:04:32.632Z,9.20
2023-02-17T20:10:38.968Z,12.63
2023-02-17T20:16:41.340Z,11.32
2023-02-17T20:22:43.079Z,9.23
2023-02-17T20:28:44.896Z,6.53
2023-02-17T20:34:46.746Z,14.10
2023-02-17T20:40:48.564Z,9.05
2023-02-17T20:46:50.443Z,10.68
2023-02-17T20:52:52.399Z,7.18
2023-02-17T20:58:54.305Z,8.07
2023-02-17T21:04:56.337Z,7.38
2023-02-17T21:10:58.271Z,7.10
2023-02-17T21:17:00.252Z,8.35
2023-02-17T21:23:02.096Z,10.18
2023-02-17T21:29:04.364Z,7.70
2023-02-17T21:35:08.761Z,8.38
2023-02-17T21:41:13.454Z,8.95
2023-02-17T21:47:15.321Z,10.90
2023-02-17T21:53:17.368Z,9.18
2023-02-17T21:59:19.218Z,6.10
2023-02-17T22:05:20.969Z,10.73
2023-02-17T22:11:26.393Z,10.55
2023-02-17T22:17:28.184Z,8.43
2023-02-17T22:23:32.913Z,8.10
2023-02-17T22:29:34.924Z,10.30
2023-02-17T22:35:36.727Z,7.93
2023-02-17T22:41:41.480Z,12.57
2023-02-17T22:47:43.313Z,8.95
2023-02-17T22:53:45.493Z,10.77
2023-02-17T22:59:47.519Z,8.13
2023-02-17T23:05:49.369Z,12.95
2023-02-17T23:11:51.529Z,8.93
2023-02-17T23:17:56.508Z,5.85
2023-02-17T23:23:58.436Z,11.80
2023-02-17T23:30:03.933Z,10.82
2023-02-17T23:36:07.168Z,8.23
2023-02-17T23:42:09.311Z,7.53
2023-02-17T23:48:11.257Z,9.63
2023-02-17T23:54:13.838Z,6.05
